sensor_id;sensor_type;location;lat;lon;timestamp;P1;durP1;ratioP1;P2;durP2;ratioP2
1509;SDS011;746;48.688;9.428;2024-03-08T00:01:35;30.53;;;22.13;;
1509;SDS011;746;48.688;9.428;2024-03-08T00:03:58;29.60;;;21.33;;
1509;SDS011;746;48.688;9.428;2024-03-08T00:06:20;30.27;;;20.43;;
1509;SDS011;746;48.688;9.428;2024-03-08T00:08:44;30.30;;;21.73;;
1509;SDS011;746;48.688;9.428;2024-03-08T00:11:06;32.00;;;21.40;;
1509;SDS011;746;48.688;9.428;2024-03-08T00:13:29;29.73;;;21.53;;
1509;SDS011;746;48.688;9.428;2024-03-08T00:15:51;32.70;;;21.93;;
1509;SDS011;746;48.688;9.428;2024-03-08T00:18:13;30.90;;;21.50;;
1509;SDS011;746;48.688;9.428;2024-03-08T00:20:36;31.87;;;21.27;;
1509;SDS011;746;48.688;9.428;2024-03-08T00:22:59;30.07;;;21.23;;
1509;SDS011;746;48.688;9.428;2024-03-08T00:25:23;30.00;;;21.33;;
1509;SDS011;746;48.688;9.428;2024-03-08T00:27:45;30.77;;;21.63;;
1509;SDS011;746;48.688;9.428;2024-03-08T00:30:10;32.63;;;21.73;;
1509;SDS011;746;48.688;9.428;2024-03-08T00:32:36;31.60;;;21.63;;
1509;SDS011;746;48.688;9.428;2024-03-08T00:34:59;29.53;;;21.20;;
1509;SDS011;746;48.688;9.428;2024-03-08T00:37:21;29.60;;;20.47;;
1509;SDS011;746;48.688;9.428;2024-03-08T00:39:43;31.20;;;21.53;;
1509;SDS011;746;48.688;9.428;2024-03-08T00:42:07;29.73;;;20.97;;
1509;SDS011;746;48.688;9.428;2024-03-08T00:44:29;32.83;;;21.53;;
1509;SDS011;746;48.688;9.428;2024-03-08T00:46:52;29.23;;;20.47;;
1509;SDS011;746;48.688;9.428;2024-03-08T00:49:15;31.03;;;21.03;;
1509;SDS011;746;48.688;9.428;2024-03-08T00:51:37;29.43;;;20.90;;
1509;SDS011;746;48.688;9.428;2024-03-08T00:54:00;30.73;;;20.63;;
1509;SDS011;746;48.688;9.428;2024-03-08T00:56:22;31.07;;;20.10;;
1509;SDS011;746;48.688;9.428;2024-03-08T00:58:47;29.50;;;21.07;;
1509;SDS011;746;48.688;9.428;2024-03-08T01:01:09;30.27;;;20.97;;
1509;SDS011;746;48.688;9.428;2024-03-08T01:03:31;29.60;;;20.77;;
1509;SDS011;746;48.688;9.428;2024-03-08T01:05:54;31.50;;;21.30;;
1509;SDS011;746;48.688;9.428;2024-03-08T01:08:17;29.20;;;21.13;;
1509;SDS011;746;48.688;9.428;2024-03-08T01:10:40;30.30;;;20.93;;
1509;SDS011;746;48.688;9.428;2024-03-08T01:13:02;30.40;;;20.73;;
1509;SDS011;746;48.688;9.428;2024-03-08T01:15:26;30.53;;;21.87;;
1509;SDS011;746;48.688;9.428;2024-03-08T01:17:48;29.20;;;20.73;;
1509;SDS011;746;48.688;9.428;2024-03-08T01:20:10;32.03;;;21.57;;
1509;SDS011;746;48.688;9.428;2024-03-08T01:22:33;30.53;;;20.53;;
1509;SDS011;746;48.688;9.428;2024-03-08T01:24:55;30.37;;;21.10;;
1509;SDS011;746;48.688;9.428;2024-03-08T01:27:18;31.43;;;21.40;;
1509;SDS011;746;48.688;9.428;2024-03-08T01:29:40;32.30;;;21.53;;
1509;SDS011;746;48.688;9.428;2024-03-08T01:32:04;30.47;;;21.03;;
1509;SDS011;746;48.688;9.428;2024-03-08T01:34:27;29.77;;;20.97;;
1509;SDS011;746;48.688;9.428;2024-03-08T01:36:49;28.87;;;20.27;;
1509;SDS011;746;48.688;9.428;2024-03-08T01:39:11;27.70;;;19.00;;
1509;SDS011;746;48.688;9.428;2024-03-08T01:41:33;27.80;;;19.57;;
1509;SDS011;746;48.688;9.428;2024-03-08T01:43:56;31.37;;;20.20;;
1509;SDS011;746;48.688;9.428;2024-03-08T01:46:19;29.73;;;19.93;;
1509;SDS011;746;48.688;9.428;2024-03-08T01:48:45;29.67;;;20.50;;
1509;SDS011;746;48.688;9.428;2024-03-08T01:51:07;30.67;;;20.00;;
1509;SDS011;746;48.688;9.428;2024-03-08T01:53:30;26.90;;;18.90;;
1509;SDS011;746;48.688;9.428;2024-03-08T01:55:53;26.43;;;18.60;;
1509;SDS011;746;48.688;9.428;2024-03-08T01:58:18;25.57;;;18.70;;
1509;SDS011;746;48.688;9.428;2024-03-08T02:00:43;26.90;;;18.73;;
1509;SDS011;746;48.688;9.428;2024-03-08T02:03:06;26.30;;;18.70;;
1509;SDS011;746;48.688;9.428;2024-03-08T02:05:29;27.97;;;19.43;;
1509;SDS011;746;48.688;9.428;2024-03-08T02:07:51;25.37;;;18.03;;
1509;SDS011;746;48.688;9.428;2024-03-08T02:10:14;25.47;;;19.00;;
1509;SDS011;746;48.688;9.428;2024-03-08T02:12:36;27.33;;;18.23;;
1509;SDS011;746;48.688;9.428;2024-03-08T02:14:59;28.03;;;19.10;;
1509;SDS011;746;48.688;9.428;2024-03-08T02:17:21;28.13;;;20.17;;
1509;SDS011;746;48.688;9.428;2024-03-08T02:19:44;25.60;;;18.03;;
1509;SDS011;746;48.688;9.428;2024-03-08T02:22:07;26.40;;;19.03;;
1509;SDS011;746;48.688;9.428;2024-03-08T02:24:29;25.60;;;18.80;;
1509;SDS011;746;48.688;9.428;2024-03-08T02:26:52;26.73;;;18.30;;
1509;SDS011;746;48.688;9.428;2024-03-08T02:29:15;27.93;;;19.27;;
1509;SDS011;746;48.688;9.428;2024-03-08T02:31:37;24.80;;;18.27;;
1509;SDS011;746;48.688;9.428;2024-03-08T02:34:00;24.53;;;18.13;;
1509;SDS011;746;48.688;9.428;2024-03-08T02:36:22;25.60;;;17.97;;
1509;SDS011;746;48.688;9.428;2024-03-08T02:38:46;25.33;;;18.03;;
1509;SDS011;746;48.688;9.428;2024-03-08T02:41:08;27.27;;;18.97;;
1509;SDS011;746;48.688;9.428;2024-03-08T02:43:31;27.87;;;18.80;;
1509;SDS011;746;48.688;9.428;2024-03-08T02:45:54;24.90;;;18.10;;
1509;SDS011;746;48.688;9.428;2024-03-08T02:48:17;24.97;;;17.73;;
1509;SDS011;746;48.688;9.428;2024-03-08T02:50:39;23.13;;;17.50;;
1509;SDS011;746;48.688;9.428;2024-03-08T02:53:03;27.67;;;18.03;;
1509;SDS011;746;48.688;9.428;2024-03-08T02:55:28;28.07;;;19.27;;
1509;SDS011;746;48.688;9.428;2024-03-08T02:57:51;27.77;;;18.57;;
1509;SDS011;746;48.688;9.428;2024-03-08T03:00:15;27.93;;;18.97;;
1509;SDS011;746;48.688;9.428;2024-03-08T03:02:39;26.20;;;17.97;;
1509;SDS011;746;48.688;9.428;2024-03-08T03:05:02;28.37;;;19.53;;
1509;SDS011;746;48.688;9.428;2024-03-08T03:07:26;27.80;;;19.50;;
1509;SDS011;746;48.688;9.428;2024-03-08T03:09:49;28.00;;;20.07;;
1509;SDS011;746;48.688;9.428;2024-03-08T03:12:13;28.40;;;19.93;;
1509;SDS011;746;48.688;9.428;2024-03-08T03:14:35;29.30;;;19.60;;
1509;SDS011;746;48.688;9.428;2024-03-08T03:16:59;27.13;;;19.77;;
1509;SDS011;746;48.688;9.428;2024-03-08T03:19:23;29.87;;;19.80;;
1509;SDS011;746;48.688;9.428;2024-03-08T03:21:45;30.17;;;19.60;;
1509;SDS011;746;48.688;9.428;2024-03-08T03:24:08;27.70;;;19.47;;
1509;SDS011;746;48.688;9.428;2024-03-08T03:26:31;26.27;;;19.30;;
1509;SDS011;746;48.688;9.428;2024-03-08T03:28:55;27.23;;;19.17;;
1509;SDS011;746;48.688;9.428;2024-03-08T03:31:18;29.70;;;19.87;;
1509;SDS011;746;48.688;9.428;2024-03-08T03:33:40;29.27;;;19.90;;
1509;SDS011;746;48.688;9.428;2024-03-08T03:36:03;26.57;;;19.90;;
1509;SDS011;746;48.688;9.428;2024-03-08T03:38:26;30.47;;;20.43;;
1509;SDS011;746;48.688;9.428;2024-03-08T03:40:49;33.03;;;21.57;;
1509;SDS011;746;48.688;9.428;2024-03-08T03:43:14;31.23;;;21.20;;
1509;SDS011;746;48.688;9.428;2024-03-08T03:45:38;29.70;;;20.53;;
1509;SDS011;746;48.688;9.428;2024-03-08T03:48:02;28.50;;;21.00;;
1509;SDS011;746;48.688;9.428;2024-03-08T03:50:25;27.57;;;19.23;;
1509;SDS011;746;48.688;9.428;2024-03-08T03:52:47;28.83;;;20.00;;
1509;SDS011;746;48.688;9.428;2024-03-08T03:55:09;32.13;;;21.17;;
1509;SDS011;746;48.688;9.428;2024-03-08T03:57:32;32.70;;;20.40;;
1509;SDS011;746;48.688;9.428;2024-03-08T03:59:54;31.73;;;21.40;;
1509;SDS011;746;48.688;9.428;2024-03-08T04:02:19;31.67;;;20.90;;
1509;SDS011;746;48.688;9.428;2024-03-08T04:04:41;31.17;;;21.60;;
1509;SDS011;746;48.688;9.428;2024-03-08T04:07:03;28.90;;;20.23;;
1509;SDS011;746;48.688;9.428;2024-03-08T04:09:26;27.93;;;20.03;;
1509;SDS011;746;48.688;9.428;2024-03-08T04:11:48;29.57;;;20.83;;
1509;SDS011;746;48.688;9.428;2024-03-08T04:14:13;27.67;;;19.60;;
1509;SDS011;746;48.688;9.428;2024-03-08T04:16:37;31.77;;;21.60;;
1509;SDS011;746;48.688;9.428;2024-03-08T04:19:00;30.77;;;21.40;;
1509;SDS011;746;48.688;9.428;2024-03-08T04:21:25;31.07;;;20.73;;
1509;SDS011;746;48.688;9.428;2024-03-08T04:23:47;29.13;;;20.60;;
1509;SDS011;746;48.688;9.428;2024-03-08T04:26:10;30.63;;;21.03;;
1509;SDS011;746;48.688;9.428;2024-03-08T04:28:34;34.50;;;22.30;;
1509;SDS011;746;48.688;9.428;2024-03-08T04:30:58;29.07;;;21.00;;
1509;SDS011;746;48.688;9.428;2024-03-08T04:33:21;33.13;;;21.80;;
1509;SDS011;746;48.688;9.428;2024-03-08T04:35:55;31.30;;;21.60;;
1509;SDS011;746;48.688;9.428;2024-03-08T04:38:17;30.00;;;21.17;;
1509;SDS011;746;48.688;9.428;2024-03-08T04:40:39;29.83;;;21.27;;
1509;SDS011;746;48.688;9.428;2024-03-08T04:43:01;29.63;;;21.63;;
1509;SDS011;746;48.688;9.428;2024-03-08T04:45:24;30.17;;;21.80;;
1509;SDS011;746;48.688;9.428;2024-03-08T04:47:47;31.60;;;22.13;;
1509;SDS011;746;48.688;9.428;2024-03-08T04:50:10;32.00;;;21.80;;
1509;SDS011;746;48.688;9.428;2024-03-08T04:52:34;30.70;;;21.30;;
1509;SDS011;746;48.688;9.428;2024-03-08T04:54:57;29.70;;;21.10;;
1509;SDS011;746;48.688;9.428;2024-03-08T04:57:19;31.87;;;22.20;;
1509;SDS011;746;48.688;9.428;2024-03-08T04:59:42;30.47;;;20.37;;
1509;SDS011;746;48.688;9.428;2024-03-08T05:02:04;31.67;;;20.70;;
1509;SDS011;746;48.688;9.428;2024-03-08T05:04:27;28.30;;;19.87;;
1509;SDS011;746;48.688;9.428;2024-03-08T05:06:50;32.70;;;20.50;;
1509;SDS011;746;48.688;9.428;2024-03-08T05:09:14;30.67;;;21.80;;
1509;SDS011;746;48.688;9.428;2024-03-08T05:11:36;32.23;;;21.47;;
1509;SDS011;746;48.688;9.428;2024-03-08T05:13:59;29.80;;;20.90;;
1509;SDS011;746;48.688;9.428;2024-03-08T05:16:21;31.13;;;21.47;;
1509;SDS011;746;48.688;9.428;2024-03-08T05:18:45;32.77;;;21.23;;
1509;SDS011;746;48.688;9.428;2024-03-08T05:21:07;30.27;;;21.10;;
1509;SDS011;746;48.688;9.428;2024-03-08T05:23:30;31.73;;;21.03;;
1509;SDS011;746;48.688;9.428;2024-03-08T05:25:54;29.43;;;20.80;;
1509;SDS011;746;48.688;9.428;2024-03-08T05:28:17;30.17;;;21.40;;
1509;SDS011;746;48.688;9.428;2024-03-08T05:30:40;33.73;;;22.63;;
1509;SDS011;746;48.688;9.428;2024-03-08T05:33:03;35.03;;;23.30;;
1509;SDS011;746;48.688;9.428;2024-03-08T05:35:26;31.83;;;22.27;;
1509;SDS011;746;48.688;9.428;2024-03-08T05:37:48;33.43;;;22.73;;
1509;SDS011;746;48.688;9.428;2024-03-08T05:40:11;35.70;;;22.87;;
1509;SDS011;746;48.688;9.428;2024-03-08T05:42:39;33.40;;;22.97;;
1509;SDS011;746;48.688;9.428;2024-03-08T05:45:02;32.57;;;22.27;;
1509;SDS011;746;48.688;9.428;2024-03-08T05:47:24;33.40;;;22.87;;
1509;SDS011;746;48.688;9.428;2024-03-08T05:49:51;32.60;;;21.80;;
1509;SDS011;746;48.688;9.428;2024-03-08T05:52:14;32.33;;;22.17;;
1509;SDS011;746;48.688;9.428;2024-03-08T05:54:36;32.43;;;20.90;;
1509;SDS011;746;48.688;9.428;2024-03-08T05:56:58;34.83;;;22.77;;
1509;SDS011;746;48.688;9.428;2024-03-08T05:59:22;37.23;;;24.47;;
1509;SDS011;746;48.688;9.428;2024-03-08T06:01:45;33.30;;;22.37;;
1509;SDS011;746;48.688;9.428;2024-03-08T06:04:07;34.70;;;23.23;;
1509;SDS011;746;48.688;9.428;2024-03-08T06:06:30;32.57;;;21.83;;
1509;SDS011;746;48.688;9.428;2024-03-08T06:08:52;32.47;;;23.10;;
1509;SDS011;746;48.688;9.428;2024-03-08T06:11:17;34.77;;;23.47;;
1509;SDS011;746;48.688;9.428;2024-03-08T06:13:40;32.70;;;22.73;;
1509;SDS011;746;48.688;9.428;2024-03-08T06:16:04;34.83;;;22.93;;
1509;SDS011;746;48.688;9.428;2024-03-08T06:18:28;33.27;;;22.63;;
1509;SDS011;746;48.688;9.428;2024-03-08T06:20:51;34.00;;;23.33;;
1509;SDS011;746;48.688;9.428;2024-03-08T06:23:16;33.67;;;23.23;;
1509;SDS011;746;48.688;9.428;2024-03-08T06:25:38;33.53;;;23.13;;
1509;SDS011;746;48.688;9.428;2024-03-08T06:28:01;32.13;;;22.80;;
1509;SDS011;746;48.688;9.428;2024-03-08T06:30:23;34.47;;;23.20;;
1509;SDS011;746;48.688;9.428;2024-03-08T06:32:47;31.53;;;22.50;;
1509;SDS011;746;48.688;9.428;2024-03-08T06:35:10;29.87;;;21.47;;
1509;SDS011;746;48.688;9.428;2024-03-08T06:37:32;31.37;;;22.90;;
1509;SDS011;746;48.688;9.428;2024-03-08T06:39:55;30.33;;;21.93;;
1509;SDS011;746;48.688;9.428;2024-03-08T06:42:17;29.50;;;21.93;;
1509;SDS011;746;48.688;9.428;2024-03-08T06:44:39;29.73;;;22.33;;
1509;SDS011;746;48.688;9.428;2024-03-08T06:47:09;35.77;;;22.37;;
1509;SDS011;746;48.688;9.428;2024-03-08T06:49:33;31.83;;;21.33;;
1509;SDS011;746;48.688;9.428;2024-03-08T06:51:55;27.77;;;20.80;;
1509;SDS011;746;48.688;9.428;2024-03-08T06:54:17;27.97;;;21.20;;
1509;SDS011;746;48.688;9.428;2024-03-08T06:56:40;27.87;;;20.53;;
1509;SDS011;746;48.688;9.428;2024-03-08T06:59:02;25.87;;;20.33;;
1509;SDS011;746;48.688;9.428;2024-03-08T07:01:24;30.63;;;20.80;;
1509;SDS011;746;48.688;9.428;2024-03-08T07:03:46;28.83;;;20.20;;
1509;SDS011;746;48.688;9.428;2024-03-08T07:06:10;27.90;;;19.77;;
1509;SDS011;746;48.688;9.428;2024-03-08T07:08:33;25.83;;;20.13;;
1509;SDS011;746;48.688;9.428;2024-03-08T07:10:55;24.80;;;18.47;;
1509;SDS011;746;48.688;9.428;2024-03-08T07:13:20;26.63;;;20.03;;
1509;SDS011;746;48.688;9.428;2024-03-08T07:15:42;25.50;;;19.77;;
1509;SDS011;746;48.688;9.428;2024-03-08T07:18:05;26.07;;;19.43;;
1509;SDS011;746;48.688;9.428;2024-03-08T07:20:29;26.63;;;18.27;;
1509;SDS011;746;48.688;9.428;2024-03-08T07:22:54;30.70;;;20.57;;
1509;SDS011;746;48.688;9.428;2024-03-08T07:25:16;25.70;;;18.80;;
1509;SDS011;746;48.688;9.428;2024-03-08T07:27:43;24.17;;;19.07;;
1509;SDS011;746;48.688;9.428;2024-03-08T07:30:06;26.50;;;19.43;;
1509;SDS011;746;48.688;9.428;2024-03-08T07:32:30;28.17;;;19.80;;
1509;SDS011;746;48.688;9.428;2024-03-08T07:34:55;25.40;;;18.37;;
1509;SDS011;746;48.688;9.428;2024-03-08T07:37:17;25.57;;;19.80;;
1509;SDS011;746;48.688;9.428;2024-03-08T07:39:42;26.03;;;19.37;;
1509;SDS011;746;48.688;9.428;2024-03-08T07:42:04;25.77;;;19.67;;
1509;SDS011;746;48.688;9.428;2024-03-08T07:44:27;25.30;;;18.93;;
1509;SDS011;746;48.688;9.428;2024-03-08T07:46:50;24.90;;;19.27;;
1509;SDS011;746;48.688;9.428;2024-03-08T07:49:17;25.00;;;18.77;;
1509;SDS011;746;48.688;9.428;2024-03-08T07:51:39;23.83;;;17.67;;
1509;SDS011;746;48.688;9.428;2024-03-08T07:54:02;23.93;;;18.50;;
1509;SDS011;746;48.688;9.428;2024-03-08T07:56:27;26.60;;;19.10;;
1509;SDS011;746;48.688;9.428;2024-03-08T07:58:52;24.23;;;18.63;;
1509;SDS011;746;48.688;9.428;2024-03-08T08:01:18;23.70;;;19.20;;
1509;SDS011;746;48.688;9.428;2024-03-08T08:03:40;25.50;;;18.63;;
1509;SDS011;746;48.688;9.428;2024-03-08T08:06:03;25.70;;;18.77;;
1509;SDS011;746;48.688;9.428;2024-03-08T08:08:26;25.43;;;18.27;;
1509;SDS011;746;48.688;9.428;2024-03-08T08:10:48;23.57;;;17.27;;
1509;SDS011;746;48.688;9.428;2024-03-08T08:13:12;22.47;;;17.83;;
1509;SDS011;746;48.688;9.428;2024-03-08T08:15:38;24.10;;;17.83;;
1509;SDS011;746;48.688;9.428;2024-03-08T08:18:00;23.73;;;17.93;;
1509;SDS011;746;48.688;9.428;2024-03-08T08:20:27;23.20;;;17.53;;
1509;SDS011;746;48.688;9.428;2024-03-08T08:22:50;22.17;;;16.67;;
1509;SDS011;746;48.688;9.428;2024-03-08T08:25:12;23.73;;;18.00;;
1509;SDS011;746;48.688;9.428;2024-03-08T08:27:36;23.03;;;16.67;;
1509;SDS011;746;48.688;9.428;2024-03-08T08:30:00;22.77;;;17.97;;
1509;SDS011;746;48.688;9.428;2024-03-08T08:32:23;23.97;;;18.33;;
1509;SDS011;746;48.688;9.428;2024-03-08T08:34:46;22.63;;;16.87;;
1509;SDS011;746;48.688;9.428;2024-03-08T08:37:08;24.63;;;18.43;;
1509;SDS011;746;48.688;9.428;2024-03-08T08:39:31;22.70;;;17.47;;
1509;SDS011;746;48.688;9.428;2024-03-08T08:41:53;21.97;;;16.80;;
1509;SDS011;746;48.688;9.428;2024-03-08T08:44:16;24.47;;;18.53;;
1509;SDS011;746;48.688;9.428;2024-03-08T08:46:40;22.87;;;17.73;;
1509;SDS011;746;48.688;9.428;2024-03-08T08:49:02;22.07;;;17.77;;
1509;SDS011;746;48.688;9.428;2024-03-08T08:51:24;21.23;;;16.97;;
1509;SDS011;746;48.688;9.428;2024-03-08T08:53:48;23.13;;;16.43;;
1509;SDS011;746;48.688;9.428;2024-03-08T08:56:10;22.67;;;17.50;;
1509;SDS011;746;48.688;9.428;2024-03-08T08:58:37;21.10;;;16.67;;
1509;SDS011;746;48.688;9.428;2024-03-08T09:00:59;22.03;;;17.53;;
1509;SDS011;746;48.688;9.428;2024-03-08T09:03:23;21.00;;;16.90;;
1509;SDS011;746;48.688;9.428;2024-03-08T09:05:48;19.63;;;15.63;;
1509;SDS011;746;48.688;9.428;2024-03-08T09:08:10;19.83;;;16.43;;
1509;SDS011;746;48.688;9.428;2024-03-08T09:10:33;21.00;;;16.37;;
1509;SDS011;746;48.688;9.428;2024-03-08T09:12:55;22.77;;;16.67;;
1509;SDS011;746;48.688;9.428;2024-03-08T09:15:18;21.97;;;16.57;;
1509;SDS011;746;48.688;9.428;2024-03-08T09:17:41;21.87;;;16.63;;
1509;SDS011;746;48.688;9.428;2024-03-08T09:20:07;19.93;;;16.07;;
1509;SDS011;746;48.688;9.428;2024-03-08T09:22:31;22.17;;;17.20;;
1509;SDS011;746;48.688;9.428;2024-03-08T09:24:54;21.73;;;16.80;;
1509;SDS011;746;48.688;9.428;2024-03-08T09:27:18;21.07;;;17.23;;
1509;SDS011;746;48.688;9.428;2024-03-08T09:29:40;20.33;;;15.57;;
1509;SDS011;746;48.688;9.428;2024-03-08T09:32:04;19.33;;;14.80;;
1509;SDS011;746;48.688;9.428;2024-03-08T09:34:28;20.17;;;15.43;;
1509;SDS011;746;48.688;9.428;2024-03-08T09:36:59;20.47;;;16.60;;
1509;SDS011;746;48.688;9.428;2024-03-08T09:39:21;20.23;;;15.10;;
1509;SDS011;746;48.688;9.428;2024-03-08T09:41:46;20.57;;;16.73;;
1509;SDS011;746;48.688;9.428;2024-03-08T09:44:09;20.40;;;16.20;;
1509;SDS011;746;48.688;9.428;2024-03-08T09:46:33;23.20;;;16.20;;
1509;SDS011;746;48.688;9.428;2024-03-08T09:48:55;20.37;;;15.87;;
1509;SDS011;746;48.688;9.428;2024-03-08T09:51:18;20.23;;;16.17;;
1509;SDS011;746;48.688;9.428;2024-03-08T09:53:45;20.33;;;15.60;;
1509;SDS011;746;48.688;9.428;2024-03-08T09:56:10;19.03;;;15.30;;
1509;SDS011;746;48.688;9.428;2024-03-08T09:58:33;20.33;;;16.20;;
1509;SDS011;746;48.688;9.428;2024-03-08T10:01:12;19.83;;;16.53;;
1509;SDS011;746;48.688;9.428;2024-03-08T10:03:34;24.43;;;16.23;;
1509;SDS011;746;48.688;9.428;2024-03-08T10:05:56;19.67;;;15.57;;
1509;SDS011;746;48.688;9.428;2024-03-08T10:08:21;19.70;;;16.37;;
1509;SDS011;746;48.688;9.428;2024-03-08T10:10:44;18.90;;;15.33;;
1509;SDS011;746;48.688;9.428;2024-03-08T10:13:07;19.37;;;15.70;;
1509;SDS011;746;48.688;9.428;2024-03-08T10:15:31;19.17;;;15.93;;
1509;SDS011;746;48.688;9.428;2024-03-08T10:17:53;19.83;;;15.80;;
1509;SDS011;746;48.688;9.428;2024-03-08T10:20:18;19.70;;;15.87;;
1509;SDS011;746;48.688;9.428;2024-03-08T10:22:41;19.10;;;15.80;;
1509;SDS011;746;48.688;9.428;2024-03-08T10:25:26;20.60;;;16.37;;
1509;SDS011;746;48.688;9.428;2024-03-08T10:27:50;18.87;;;15.50;;
1509;SDS011;746;48.688;9.428;2024-03-08T10:30:14;19.30;;;15.20;;
1509;SDS011;746;48.688;9.428;2024-03-08T10:32:39;19.33;;;15.50;;
1509;SDS011;746;48.688;9.428;2024-03-08T10:35:03;18.83;;;15.73;;
1509;SDS011;746;48.688;9.428;2024-03-08T10:37:26;21.63;;;17.00;;
1509;SDS011;746;48.688;9.428;2024-03-08T10:39:52;20.63;;;16.13;;
1509;SDS011;746;48.688;9.428;2024-03-08T10:42:22;19.10;;;15.37;;
1509;SDS011;746;48.688;9.428;2024-03-08T10:44:53;18.80;;;15.90;;
1509;SDS011;746;48.688;9.428;2024-03-08T10:47:23;20.40;;;16.37;;
1509;SDS011;746;48.688;9.428;2024-03-08T10:49:51;20.27;;;16.23;;
1509;SDS011;746;48.688;9.428;2024-03-08T10:52:16;22.43;;;16.03;;
1509;SDS011;746;48.688;9.428;2024-03-08T10:54:38;21.20;;;16.30;;
1509;SDS011;746;48.688;9.428;2024-03-08T10:57:05;18.70;;;14.93;;
1509;SDS011;746;48.688;9.428;2024-03-08T10:59:28;21.60;;;16.20;;
1509;SDS011;746;48.688;9.428;2024-03-08T11:01:52;18.53;;;15.10;;
1509;SDS011;746;48.688;9.428;2024-03-08T11:04:14;20.43;;;16.33;;
1509;SDS011;746;48.688;9.428;2024-03-08T11:06:44;19.33;;;16.63;;
1509;SDS011;746;48.688;9.428;2024-03-08T11:09:08;22.30;;;17.13;;
1509;SDS011;746;48.688;9.428;2024-03-08T11:11:34;20.00;;;16.37;;
1509;SDS011;746;48.688;9.428;2024-03-08T11:13:56;19.30;;;16.63;;
1509;SDS011;746;48.688;9.428;2024-03-08T11:19:06;21.47;;;17.20;;
1509;SDS011;746;48.688;9.428;2024-03-08T11:21:46;20.87;;;17.23;;
1509;SDS011;746;48.688;9.428;2024-03-08T11:24:09;19.60;;;16.13;;
1509;SDS011;746;48.688;9.428;2024-03-08T11:26:34;22.03;;;17.50;;
1509;SDS011;746;48.688;9.428;2024-03-08T11:28:58;21.17;;;17.40;;
1509;SDS011;746;48.688;9.428;2024-03-08T11:32:03;23.47;;;18.27;;
1509;SDS011;746;48.688;9.428;2024-03-08T11:34:27;24.37;;;18.67;;
1509;SDS011;746;48.688;9.428;2024-03-08T11:36:52;23.87;;;18.50;;
1509;SDS011;746;48.688;9.428;2024-03-08T11:39:17;21.23;;;17.53;;
1509;SDS011;746;48.688;9.428;2024-03-08T11:41:40;21.97;;;17.63;;
1509;SDS011;746;48.688;9.428;2024-03-08T11:44:05;22.40;;;18.27;;
1509;SDS011;746;48.688;9.428;2024-03-08T11:46:28;22.00;;;17.90;;
1509;SDS011;746;48.688;9.428;2024-03-08T11:48:54;22.30;;;17.40;;
1509;SDS011;746;48.688;9.428;2024-03-08T11:51:20;24.13;;;18.73;;
1509;SDS011;746;48.688;9.428;2024-03-08T11:53:44;22.70;;;17.87;;
1509;SDS011;746;48.688;9.428;2024-03-08T11:56:08;22.73;;;17.33;;
1509;SDS011;746;48.688;9.428;2024-03-08T11:58:32;21.10;;;17.63;;
1509;SDS011;746;48.688;9.428;2024-03-08T12:01:02;23.10;;;17.63;;
1509;SDS011;746;48.688;9.428;2024-03-08T12:03:27;22.13;;;16.97;;
1509;SDS011;746;48.688;9.428;2024-03-08T12:05:57;22.93;;;18.17;;
1509;SDS011;746;48.688;9.428;2024-03-08T12:08:22;23.77;;;17.33;;
1509;SDS011;746;48.688;9.428;2024-03-08T12:10:49;23.03;;;17.27;;
1509;SDS011;746;48.688;9.428;2024-03-08T12:13:13;20.03;;;16.53;;
1509;SDS011;746;48.688;9.428;2024-03-08T12:15:48;23.50;;;18.00;;
1509;SDS011;746;48.688;9.428;2024-03-08T12:18:12;22.53;;;17.47;;
1509;SDS011;746;48.688;9.428;2024-03-08T12:20:36;24.77;;;19.37;;
1509;SDS011;746;48.688;9.428;2024-03-08T12:23:00;20.83;;;17.57;;
1509;SDS011;746;48.688;9.428;2024-03-08T12:25:29;24.17;;;18.40;;
1509;SDS011;746;48.688;9.428;2024-03-08T12:28:06;20.70;;;16.87;;
1509;SDS011;746;48.688;9.428;2024-03-08T12:30:32;24.70;;;18.13;;
1509;SDS011;746;48.688;9.428;2024-03-08T12:32:55;23.90;;;18.43;;
1509;SDS011;746;48.688;9.428;2024-03-08T12:35:19;22.40;;;17.93;;
1509;SDS011;746;48.688;9.428;2024-03-08T12:37:43;23.03;;;18.10;;
1509;SDS011;746;48.688;9.428;2024-03-08T12:40:07;27.43;;;19.77;;
1509;SDS011;746;48.688;9.428;2024-03-08T12:42:31;24.30;;;18.37;;
1509;SDS011;746;48.688;9.428;2024-03-08T12:44:53;25.87;;;19.47;;
1509;SDS011;746;48.688;9.428;2024-03-08T12:47:15;25.40;;;18.73;;
1509;SDS011;746;48.688;9.428;2024-03-08T12:49:39;22.63;;;19.30;;
1509;SDS011;746;48.688;9.428;2024-03-08T12:52:01;21.93;;;18.80;;
1509;SDS011;746;48.688;9.428;2024-03-08T12:54:24;22.97;;;18.50;;
1509;SDS011;746;48.688;9.428;2024-03-08T12:56:46;23.80;;;18.57;;
1509;SDS011;746;48.688;9.428;2024-03-08T12:59:12;24.90;;;19.50;;
1509;SDS011;746;48.688;9.428;2024-03-08T13:01:34;21.93;;;18.10;;
1509;SDS011;746;48.688;9.428;2024-03-08T13:03:58;24.63;;;19.93;;
1509;SDS011;746;48.688;9.428;2024-03-08T13:06:21;20.97;;;18.50;;
1509;SDS011;746;48.688;9.428;2024-03-08T13:08:45;23.17;;;18.03;;
1509;SDS011;746;48.688;9.428;2024-03-08T13:11:10;23.77;;;19.13;;
1509;SDS011;746;48.688;9.428;2024-03-08T13:13:33;21.03;;;17.97;;
1509;SDS011;746;48.688;9.428;2024-03-08T13:15:57;22.67;;;18.57;;
1509;SDS011;746;48.688;9.428;2024-03-08T13:18:22;21.27;;;18.07;;
1509;SDS011;746;48.688;9.428;2024-03-08T13:20:44;20.33;;;17.93;;
1509;SDS011;746;48.688;9.428;2024-03-08T13:23:10;22.77;;;18.70;;
1509;SDS011;746;48.688;9.428;2024-03-08T13:25:33;21.23;;;17.93;;
1509;SDS011;746;48.688;9.428;2024-03-08T13:27:56;20.23;;;17.37;;
1509;SDS011;746;48.688;9.428;2024-03-08T13:30:20;21.00;;;18.13;;
1509;SDS011;746;48.688;9.428;2024-03-08T13:32:46;19.33;;;17.23;;
1509;SDS011;746;48.688;9.428;2024-03-08T13:35:09;19.60;;;17.50;;
1509;SDS011;746;48.688;9.428;2024-03-08T13:37:33;19.47;;;17.37;;
1509;SDS011;746;48.688;9.428;2024-03-08T13:39:55;20.13;;;17.43;;
1509;SDS011;746;48.688;9.428;2024-03-08T13:42:18;20.63;;;18.40;;
1509;SDS011;746;48.688;9.428;2024-03-08T13:44:43;22.77;;;18.67;;
1509;SDS011;746;48.688;9.428;2024-03-08T13:47:06;20.70;;;17.83;;
1509;SDS011;746;48.688;9.428;2024-03-08T13:49:30;19.30;;;16.97;;
1509;SDS011;746;48.688;9.428;2024-03-08T13:51:53;21.07;;;18.77;;
1509;SDS011;746;48.688;9.428;2024-03-08T13:54:16;21.47;;;18.77;;
1509;SDS011;746;48.688;9.428;2024-03-08T13:56:39;19.73;;;17.67;;
1509;SDS011;746;48.688;9.428;2024-03-08T13:59:01;20.07;;;17.97;;
1509;SDS011;746;48.688;9.428;2024-03-08T14:01:23;19.57;;;17.47;;
1509;SDS011;746;48.688;9.428;2024-03-08T14:03:47;20.27;;;18.13;;
1509;SDS011;746;48.688;9.428;2024-03-08T14:06:11;20.03;;;17.97;;
1509;SDS011;746;48.688;9.428;2024-03-08T14:08:43;19.57;;;17.57;;
1509;SDS011;746;48.688;9.428;2024-03-08T14:11:05;19.70;;;17.60;;
1509;SDS011;746;48.688;9.428;2024-03-08T14:13:32;18.50;;;16.60;;
1509;SDS011;746;48.688;9.428;2024-03-08T14:15:55;20.07;;;18.07;;
1509;SDS011;746;48.688;9.428;2024-03-08T14:18:17;19.07;;;17.17;;
1509;SDS011;746;48.688;9.428;2024-03-08T14:20:48;19.87;;;17.87;;
1509;SDS011;746;48.688;9.428;2024-03-08T14:23:13;19.33;;;17.37;;
1509;SDS011;746;48.688;9.428;2024-03-08T14:25:35;21.07;;;18.73;;
1509;SDS011;746;48.688;9.428;2024-03-08T14:27:58;19.90;;;17.87;;
1509;SDS011;746;48.688;9.428;2024-03-08T14:30:24;20.23;;;18.23;;
1509;SDS011;746;48.688;9.428;2024-03-08T14:32:58;20.00;;;18.00;;
1509;SDS011;746;48.688;9.428;2024-03-08T14:35:21;18.70;;;16.77;;
1509;SDS011;746;48.688;9.428;2024-03-08T14:37:39;19.53;;;17.57;;
1509;SDS011;746;48.688;9.428;2024-03-08T14:40:01;18.50;;;16.63;;
1509;SDS011;746;48.688;9.428;2024-03-08T14:42:25;19.13;;;17.13;;